Time;durP1;ratioP1;P1;durP2;ratioP2;P2;SDS_P1;SDS_P2;PMS_P1;PMS_P2;Temp;Humidity;BMP_temperature;BMP_pressure;BME280_temperature;BME280_humidity;BME280_pressure;Samples;Min_cycle;Max_cycle;Signal;HPM_P1;HPM_P2
2023/03/05 00:00:25;;;;;;;10.27;3.90;;;;;;;4.37;100.00;102128.63;4887858;29;20168;-84
2023/03/05 00:02:50;;;;;;;4.80;2.00;;;;;;;4.33;100.00;102124.81;4883899;29;20020;-84
2023/03/05 00:05:16;;;;;;;8.48;3.00;;;;;;;4.26;100.00;102112.19;4876395;29;20028;-84
2023/03/05 00:07:41;;;;;;;10.70;2.90;;;;;;;4.39;100.00;102118.88;4904182;29;20119;-84
2023/03/05 00:10:07;;;;;;;11.40;2.60;;;;;;;4.15;100.00;102110.69;4881456;29;20044;-84
2023/03/05 00:12:33;;;;;;;12.05;2.28;;;;;;;4.29;100.00;102113.50;4884065;29;20035;-84
2023/03/05 00:14:58;;;;;;;6.65;2.65;;;;;;;4.40;100.00;102111.38;4875606;29;20135;-84
2023/03/05 00:17:23;;;;;;;11.55;3.03;;;;;;;4.35;100.00;102106.75;4906481;29;20078;-84
2023/03/05 00:19:49;;;;;;;7.35;1.90;;;;;;;4.17;100.00;102107.63;4897478;29;20044;-84
2023/03/05 00:22:14;;;;;;;7.60;2.08;;;;;;;4.18;100.00;102106.50;4879222;29;20321;-84
2023/03/05 00:24:39;;;;;;;12.90;3.08;;;;;;;4.23;100.00;102110.00;4876615;29;20456;-84
2023/03/05 00:27:05;;;;;;;7.18;2.22;;;;;;;4.33;100.00;102102.66;4880686;29;20034;-84
2023/03/05 00:29:30;;;;;;;5.07;2.78;;;;;;;4.20;100.00;102105.09;4892024;29;20445;-84
2023/03/05 00:31:56;;;;;;;5.68;2.10;;;;;;;4.13;100.00;102103.81;4890191;29;20028;-84
2023/03/05 00:34:39;;;;;;;8.25;2.25;;;;;;;4.14;100.00;102105.47;4885809;29;20405;-85
2023/03/05 00:37:04;;;;;;;4.75;1.65;;;;;;;3.93;100.00;102093.94;4878721;29;20037;-84
2023/03/05 00:39:30;;;;;;;9.20;1.50;;;;;;;3.99;100.00;102092.72;4883509;29;20043;-83
2023/03/05 00:41:55;;;;;;;7.18;2.42;;;;;;;4.13;100.00;102096.31;4884083;29;20032;-84
2023/03/05 00:44:20;;;;;;;5.25;2.03;;;;;;;4.12;100.00;102094.69;4876246;29;20029;-84
2023/03/05 00:46:46;;;;;;;5.70;1.65;;;;;;;3.91;100.00;102091.44;4884285;29;20123;-84
2023/03/05 00:49:11;;;;;;;5.55;1.67;;;;;;;4.09;100.00;102081.47;4882286;29;20036;-84
2023/03/05 00:51:37;;;;;;;5.82;1.58;;;;;;;3.98;100.00;102069.72;4871627;29;20036;-84
2023/03/05 00:54:03;;;;;;;5.40;1.50;;;;;;;3.94;100.00;102073.41;4888793;29;20036;-84
2023/03/05 00:56:28;;;;;;;8.68;1.67;;;;;;;4.12;100.00;102075.28;4888798;29;20282;-83
2023/03/05 00:58:54;;;;;;;5.50;1.80;;;;;;;4.02;100.00;102072.69;4870019;29;20040;-84
2023/03/05 01:01:19;;;;;;;2.47;1.33;;;;;;;4.09;100.00;102070.38;4885240;29;20043;-84
2023/03/05 01:03:45;;;;;;;3.08;1.35;;;;;;;4.09;100.00;102075.91;4880434;29;20016;-84
2023/03/05 01:06:12;;;;;;;5.32;1.58;;;;;;;4.14;100.00;102067.50;4869333;29;20124;-84
2023/03/05 01:08:38;;;;;;;5.53;1.50;;;;;;;4.11;100.00;102067.28;4884651;29;20044;-84
2023/03/05 01:11:04;;;;;;;7.00;1.45;;;;;;;4.25;100.00;102070.91;4891880;29;20143;-84
2023/03/05 01:13:30;;;;;;;6.20;2.30;;;;;;;4.22;100.00;102049.34;4891849;29;20583;-84
2023/03/05 01:15:55;;;;;;;3.20;1.40;;;;;;;4.16;100.00;102048.63;4878423;29;20117;-84
2023/03/05 01:18:21;;;;;;;6.05;1.55;;;;;;;4.04;100.00;102045.50;4875020;29;20039;-83
2023/03/05 01:20:46;;;;;;;3.70;1.67;;;;;;;4.12;100.00;102039.28;4876704;29;20041;-84
2023/03/05 01:23:12;;;;;;;9.15;2.33;;;;;;;4.15;100.00;102035.88;4874379;29;20024;-84
2023/03/05 01:25:37;;;;;;;3.15;1.50;;;;;;;4.13;100.00;102035.34;4889638;29;20029;-84
2023/03/05 01:28:03;;;;;;;6.57;1.42;;;;;;;4.27;100.00;102044.50;4866436;29;20037;-84
2023/03/05 01:30:30;;;;;;;5.57;1.10;;;;;;;4.14;100.00;102020.38;4867012;29;20025;-83
2023/03/05 01:32:55;;;;;;;5.93;1.10;;;;;;;4.16;100.00;102032.00;4877823;29;20039;-84
2023/03/05 01:35:24;;;;;;;2.92;1.35;;;;;;;4.12;100.00;102030.97;4876895;29;20028;-83
2023/03/05 01:37:49;;;;;;;5.68;1.60;;;;;;;4.26;100.00;102026.25;4890506;29;20029;-84
2023/03/05 01:40:18;;;;;;;3.25;1.15;;;;;;;4.23;100.00;102032.41;4895838;29;20083;-84
2023/03/05 01:42:45;;;;;;;6.72;1.90;;;;;;;3.93;100.00;102027.44;4890126;29;20032;-84
2023/03/05 01:45:14;;;;;;;4.53;2.47;;;;;;;4.01;100.00;102016.47;4905445;29;20016;-84
2023/03/05 01:47:39;;;;;;;8.18;1.80;;;;;;;4.09;100.00;102020.50;4895099;29;20039;-84
2023/03/05 01:50:08;;;;;;;3.63;1.65;;;;;;;4.20;100.00;102013.63;4909597;29;20102;-84
2023/03/05 01:52:37;;;;;;;8.93;2.63;;;;;;;4.18;100.00;102018.66;4891577;29;20374;-84
2023/03/05 01:55:13;;;;;;;5.95;1.40;;;;;;;3.85;100.00;101999.31;4905157;29;20112;-84
2023/03/05 01:57:49;;;;;;;4.10;1.45;;;;;;;3.82;100.00;101994.38;4907664;29;20036;-84
2023/03/05 02:00:29;;;;;;;4.18;2.35;;;;;;;3.84;100.00;101992.13;4890535;29;20050;-84
2023/03/05 02:02:56;;;;;;;8.18;1.60;;;;;;;4.08;100.00;101999.44;4904184;29;20040;-84
2023/03/05 02:05:27;;;;;;;11.43;1.85;;;;;;;3.90;100.00;102003.09;4890516;29;20130;-84
2023/03/05 02:07:57;;;;;;;8.00;1.65;;;;;;;3.99;100.00;101987.44;4902739;29;20040;-84
2023/03/05 02:10:26;;;;;;;2.15;1.10;;;;;;;4.11;100.00;101990.53;4885645;29;20043;-84
2023/03/05 02:12:54;;;;;;;6.80;2.03;;;;;;;4.00;100.00;101989.06;4891003;29;20039;-84
2023/03/05 02:15:21;;;;;;;4.90;1.55;;;;;;;4.00;100.00;101987.13;4905004;29;20496;-84
2023/03/05 02:17:46;;;;;;;6.47;1.80;;;;;;;3.93;100.00;101985.88;4886423;29;20087;-84
2023/03/05 02:20:16;;;;;;;3.78;1.52;;;;;;;3.78;100.00;101976.72;4890368;29;20024;-84
2023/03/05 02:22:41;;;;;;;10.05;1.92;;;;;;;3.66;100.00;101968.09;4900164;29;20032;-83
2023/03/05 02:25:21;;;;;;;3.97;1.98;;;;;;;3.76;100.00;101969.88;4887126;29;20095;-84
2023/03/05 02:27:55;;;;;;;8.15;2.22;;;;;;;3.80;100.00;101957.88;4899219;29;20040;-84
2023/03/05 02:30:21;;;;;;;7.90;2.55;;;;;;;3.76;100.00;101956.81;4902772;29;20103;-85
2023/03/05 02:32:46;;;;;;;7.90;1.60;;;;;;;3.73;100.00;101951.91;4899363;29;20032;-84
2023/03/05 02:35:12;;;;;;;2.83;1.40;;;;;;;3.87;100.00;101955.50;4900781;29;20087;-84
2023/03/05 02:37:37;;;;;;;4.57;1.52;;;;;;;3.90;100.00;101945.78;4891334;29;20028;-84
2023/03/05 02:40:03;;;;;;;5.82;1.60;;;;;;;3.90;100.00;101950.47;4890269;29;20066;-84
2023/03/05 02:42:32;;;;;;;3.83;1.40;;;;;;;4.00;100.00;101953.06;4895313;29;20036;-84
2023/03/05 02:44:59;;;;;;;3.10;1.50;;;;;;;4.04;100.00;101941.03;4895446;29;20088;-84
2023/03/05 02:47:24;;;;;;;4.78;1.30;;;;;;;4.00;100.00;101933.66;4903569;29;20067;-84
2023/03/05 02:49:50;;;;;;;6.35;1.50;;;;;;;3.77;100.00;101935.50;4892506;29;20603;-84
2023/03/05 02:52:15;;;;;;;9.73;2.40;;;;;;;3.65;100.00;101933.22;4902567;29;20115;-84
2023/03/05 02:54:41;;;;;;;3.30;1.10;;;;;;;3.70;100.00;101924.81;4887478;29;20044;-84
2023/03/05 02:57:06;;;;;;;3.00;1.40;;;;;;;3.71;100.00;101920.94;4901628;29;20082;-84
2023/03/05 02:59:31;;;;;;;7.30;1.50;;;;;;;3.72;100.00;101911.50;4903788;29;20110;-85
2023/03/05 03:01:57;;;;;;;2.28;1.35;;;;;;;3.57;100.00;101909.81;4908582;29;20492;-83
2023/03/05 03:04:22;;;;;;;6.10;1.73;;;;;;;3.73;100.00;101915.06;4905610;29;20038;-84
2023/03/05 03:06:47;;;;;;;6.03;1.40;;;;;;;3.61;100.00;101904.50;4891223;29;20028;-84
2023/03/05 03:09:13;;;;;;;9.70;2.38;;;;;;;3.70;100.00;101893.53;4891757;29;20115;-83
2023/03/05 03:11:38;;;;;;;10.43;1.30;;;;;;;3.84;100.00;101886.88;4896949;29;20122;-84
2023/03/05 03:14:03;;;;;;;8.82;1.63;;;;;;;3.92;100.00;101898.38;4895059;29;20504;-84
2023/03/05 03:16:32;;;;;;;2.40;1.30;;;;;;;3.61;100.00;101899.78;4895757;29;20096;-84
2023/03/05 03:18:58;;;;;;;5.78;1.90;;;;;;;3.79;100.00;101898.03;4909930;29;20040;-84
2023/03/05 03:21:24;;;;;;;3.60;1.40;;;;;;;3.82;100.00;101894.69;4895601;29;20040;-84
2023/03/05 03:23:50;;;;;;;4.65;1.67;;;;;;;3.76;100.00;101884.00;4898682;29;20115;-84
2023/03/05 03:26:16;;;;;;;7.10;3.15;;;;;;;3.89;100.00;101880.41;4913639;29;20106;-84
2023/03/05 03:28:42;;;;;;;2.63;1.30;;;;;;;3.89;100.00;101883.19;4893063;29;20548;-84
2023/03/05 03:31:07;;;;;;;5.78;1.90;;;;;;;3.94;100.00;101880.28;4912353;29;20090;-84
2023/03/05 03:33:33;;;;;;;4.53;1.60;;;;;;;3.80;100.00;101862.88;4913862;29;20036;-84
2023/03/05 03:35:59;;;;;;;5.28;2.28;;;;;;;3.94;100.00;101869.22;4896017;29;20130;-84
2023/03/05 03:38:24;;;;;;;3.28;1.50;;;;;;;3.89;100.00;101866.56;4906580;29;20277;-84
2023/03/05 03:40:49;;;;;;;4.32;2.13;;;;;;;3.68;100.00;101866.16;4902110;29;20402;-84
2023/03/05 03:43:15;;;;;;;6.72;1.85;;;;;;;3.54;100.00;101870.84;4878077;29;20063;-84
2023/03/05 03:45:43;;;;;;;6.78;1.52;;;;;;;3.62;100.00;101856.31;4892432;29;20469;-83
2023/03/05 03:48:09;;;;;;;9.75;1.77;;;;;;;3.54;100.00;101848.72;4877572;29;20036;-84
2023/03/05 03:50:41;;;;;;;6.03;1.27;;;;;;;3.76;100.00;101856.31;4878119;29;20033;-83
2023/03/05 03:53:07;;;;;;;6.38;2.03;;;;;;;3.79;100.00;101862.03;4876065;29;20028;-84
2023/03/05 03:55:33;;;;;;;5.32;2.50;;;;;;;3.66;100.00;101852.59;4877582;29;20469;-84
2023/03/05 03:57:59;;;;;;;6.97;1.67;;;;;;;3.64;100.00;101854.03;4878549;29;20033;-84
2023/03/05 04:00:24;;;;;;;5.18;1.40;;;;;;;3.75;100.00;101858.25;4957071;23;20060;-84
2023/03/05 04:02:50;;;;;;;2.33;1.30;;;;;;;3.61;100.00;101838.06;4893902;29;20122;-84
2023/03/05 04:05:15;;;;;;;5.85;2.08;;;;;;;3.64;100.00;101843.78;4906758;29;20036;-84
2023/03/05 04:07:41;;;;;;;5.65;1.40;;;;;;;3.55;100.00;101839.28;4895670;29;20051;-84
2023/03/05 04:10:07;;;;;;;9.63;1.65;;;;;;;3.67;100.00;101847.91;4896046;29;20434;-84
2023/03/05 04:12:32;;;;;;;6.22;1.98;;;;;;;3.77;100.00;101836.59;4893878;29;20515;-84
2023/03/05 04:14:57;;;;;;;4.85;2.42;;;;;;;3.56;100.00;101841.72;4891198;29;20032;-84
2023/03/05 04:17:23;;;;;;;4.05;1.60;;;;;;;3.70;100.00;101836.22;4895468;29;20043;-84
2023/03/05 04:19:48;;;;;;;5.13;2.13;;;;;;;3.82;100.00;101830.97;4904378;29;20521;-84
2023/03/05 04:22:15;;;;;;;3.83;1.92;;;;;;;3.81;100.00;101834.88;4888412;29;20024;-83
2023/03/05 04:24:41;;;;;;;5.10;1.90;;;;;;;3.78;100.00;101826.38;4892604;29;20063;-84
2023/03/05 04:27:06;;;;;;;8.95;4.13;;;;;;;3.85;100.00;101822.03;4892452;29;20751;-83
2023/03/05 04:29:33;;;;;;;8.07;1.70;;;;;;;3.97;100.00;101823.47;4890512;29;20040;-84
2023/03/05 04:31:58;;;;;;;3.58;2.30;;;;;;;3.90;100.00;101826.69;4890596;29;20513;-84
2023/03/05 04:34:24;;;;;;;3.88;2.35;;;;;;;3.95;100.00;101831.28;4893277;29;20031;-84
2023/03/05 04:36:49;;;;;;;3.22;1.88;;;;;;;3.61;100.00;101827.00;4896320;29;20081;-83
2023/03/05 04:39:15;;;;;;;4.72;2.13;;;;;;;3.72;100.00;101822.88;4894079;29;20032;-83
2023/03/05 04:41:40;;;;;;;4.07;1.75;;;;;;;3.80;100.00;101813.84;4889092;29;20143;-84
2023/03/05 04:44:06;;;;;;;8.23;2.00;;;;;;;3.84;100.00;101822.38;4906834;29;20035;-84
2023/03/05 04:46:41;;;;;;;8.60;2.50;;;;;;;3.69;100.00;101815.19;4891919;29;20489;-84
2023/03/05 04:49:07;;;;;;;4.90;1.63;;;;;;;3.80;100.00;101813.03;4892520;29;20358;-84
2023/03/05 04:51:33;;;;;;;4.38;2.08;;;;;;;3.86;100.00;101812.63;4893615;29;20044;-83
2023/03/05 04:53:59;;;;;;;8.32;1.98;;;;;;;3.87;100.00;101805.13;4898539;29;20036;-83
2023/03/05 04:56:24;;;;;;;4.63;2.05;;;;;;;3.90;100.00;101804.53;4894202;29;20039;-84
2023/03/05 04:58:49;;;;;;;5.38;1.30;;;;;;;3.79;100.00;101806.66;4890559;29;20032;-84
2023/03/05 05:01:15;;;;;;;5.35;1.38;;;;;;;3.92;100.00;101806.97;4890639;29;20549;-84
2023/03/05 05:03:40;;;;;;;4.30;1.90;;;;;;;3.93;100.00;101800.31;4875933;29;20021;-83
2023/03/05 05:06:06;;;;;;;8.05;1.85;;;;;;;3.90;100.00;101806.44;4891667;29;20139;-84
2023/03/05 05:08:31;;;;;;;4.07;1.75;;;;;;;3.86;100.00;101800.72;4876278;29;20557;-85
2023/03/05 05:11:00;;;;;;;3.95;1.48;;;;;;;3.77;100.00;101797.84;4876876;29;20078;-84
2023/03/05 05:13:26;;;;;;;4.85;1.38;;;;;;;3.74;100.00;101784.63;4875537;29;20437;-84
2023/03/05 05:15:51;;;;;;;3.28;1.67;;;;;;;3.54;100.00;101796.09;4882445;29;20163;-84
2023/03/05 05:18:17;;;;;;;3.70;1.27;;;;;;;3.72;100.00;101789.66;4869554;29;20036;-84
2023/03/05 05:20:43;;;;;;;5.90;1.90;;;;;;;3.56;100.00;101791.09;4894620;29;20032;-84
2023/03/05 05:23:08;;;;;;;3.72;1.40;;;;;;;3.78;100.00;101788.41;4873448;29;20021;-84
2023/03/05 05:25:34;;;;;;;3.38;1.35;;;;;;;3.83;100.00;101796.59;4873696;29;20096;-84
2023/03/05 05:27:59;;;;;;;1.65;1.23;;;;;;;3.81;100.00;101787.78;4890079;29;20051;-84
2023/03/05 05:30:24;;;;;;;3.00;1.30;;;;;;;3.76;100.00;101785.13;4869917;29;20039;-84
2023/03/05 05:32:50;;;;;;;4.55;1.65;;;;;;;3.72;100.00;101795.19;4887536;29;20044;-83
2023/03/05 05:35:15;;;;;;;2.80;1.30;;;;;;;3.84;100.00;101792.72;4892241;29;20036;-83
2023/03/05 05:37:40;;;;;;;2.60;1.42;;;;;;;3.71;100.00;101793.56;4893301;29;20029;-83
2023/03/05 05:40:07;;;;;;;3.80;2.00;;;;;;;3.83;100.00;101791.06;4877857;29;20036;-83
2023/03/05 05:42:33;;;;;;;5.95;1.33;;;;;;;3.95;100.00;101789.72;4893579;29;20029;-83
2023/03/05 05:44:58;;;;;;;5.53;1.80;;;;;;;3.75;100.00;101789.00;4893072;29;20040;-83
2023/03/05 05:47:24;;;;;;;5.68;1.10;;;;;;;3.55;100.00;101783.94;4892130;29;20413;-83
2023/03/05 05:49:49;;;;;;;2.72;1.35;;;;;;;3.73;100.00;101796.00;4885314;29;20068;-83
2023/03/05 05:52:15;;;;;;;2.08;1.40;;;;;;;3.80;100.00;101780.63;4881703;29;20063;-84
2023/03/05 05:54:40;;;;;;;3.17;1.77;;;;;;;3.83;100.00;101790.25;4884087;29;20480;-83
2023/03/05 05:57:06;;;;;;;5.03;1.42;;;;;;;3.71;100.00;101776.09;4876732;29;20043;-83
2023/03/05 05:59:32;;;;;;;3.83;1.50;;;;;;;3.74;100.00;101775.50;4891584;29;20060;-83
2023/03/05 06:01:58;;;;;;;7.70;1.35;;;;;;;3.89;100.00;101774.34;4891839;29;20115;-83
2023/03/05 06:04:23;;;;;;;6.95;1.75;;;;;;;3.80;100.00;101777.84;4870972;29;20116;-83
2023/03/05 06:06:49;;;;;;;2.03;1.20;;;;;;;3.84;100.00;101770.56;4890948;29;20072;-83
2023/03/05 06:09:15;;;;;;;3.47;1.63;;;;;;;3.83;100.00;101762.56;4884435;29;20096;-83
2023/03/05 06:11:40;;;;;;;3.25;1.10;;;;;;;3.76;100.00;101762.97;4896650;29;20032;-83
2023/03/05 06:14:07;;;;;;;1.48;1.13;;;;;;;3.80;100.00;101764.00;4881675;29;20114;-84
2023/03/05 06:16:33;;;;;;;3.53;1.00;;;;;;;3.74;100.00;101758.88;4889341;29;20069;-84
2023/03/05 06:19:03;;;;;;;2.97;1.55;;;;;;;3.70;100.00;101750.38;4878841;29;20025;-84
2023/03/05 06:21:29;;;;;;;2.88;1.15;;;;;;;3.86;100.00;101762.75;4878442;29;20088;-84
2023/03/05 06:23:54;;;;;;;2.38;0.80;;;;;;;3.89;100.00;101763.28;4875705;29;20043;-84
2023/03/05 06:26:21;;;;;;;1.80;0.90;;;;;;;3.85;100.00;101763.88;4892910;29;20471;-84
2023/03/05 06:28:47;;;;;;;1.27;1.13;;;;;;;3.86;100.00;101762.75;4872400;29;20394;-84
2023/03/05 06:31:15;;;;;;;5.05;1.40;;;;;;;3.71;100.00;101765.03;4878529;29;20025;-84
2023/03/05 06:33:41;;;;;;;2.20;1.40;;;;;;;3.60;100.00;101767.19;4880238;29;20103;-85
2023/03/05 06:36:13;;;;;;;1.88;1.00;;;;;;;3.55;100.00;101757.06;4877703;29;20124;-84
2023/03/05 06:38:39;;;;;;;2.50;1.60;;;;;;;3.48;100.00;101762.19;4890886;29;20064;-84
2023/03/05 06:41:10;;;;;;;2.78;1.30;;;;;;;3.42;100.00;101763.44;4883760;29;20115;-84
2023/03/05 06:43:38;;;;;;;3.38;1.10;;;;;;;3.43;100.00;101760.31;4901604;29;20017;-84
2023/03/05 06:46:25;;;;;;;1.85;1.15;;;;;;;3.63;100.00;101758.28;4898430;29;20130;-84
2023/03/05 06:48:53;;;;;;;1.27;1.10;;;;;;;3.77;100.00;101756.28;4904410;29;20028;-84
2023/03/05 06:51:23;;;;;;;1.45;0.93;;;;;;;3.75;100.00;101741.94;4893063;29;20051;-84
2023/03/05 06:53:50;;;;;;;1.55;0.82;;;;;;;3.84;100.00;101764.22;4879783;29;20201;-83
2023/03/05 06:56:16;;;;;;;2.83;1.10;;;;;;;3.67;100.00;101767.63;4879154;29;20062;-84
2023/03/05 06:58:47;;;;;;;3.05;0.85;;;;;;;3.78;100.00;101749.66;4899811;29;20044;-83
2023/03/05 07:01:14;;;;;;;0.85;0.80;;;;;;;3.81;100.00;101762.84;4899348;29;20029;-84
2023/03/05 07:03:40;;;;;;;2.67;0.68;;;;;;;3.81;100.00;101754.53;4896654;29;20393;-84
2023/03/05 07:06:08;;;;;;;1.88;1.00;;;;;;;3.37;100.00;101763.50;4877177;29;20028;-83
2023/03/05 07:08:34;;;;;;;5.38;0.90;;;;;;;3.67;100.00;101764.84;4893277;29;20029;-84
2023/03/05 07:11:00;;;;;;;1.45;1.20;;;;;;;3.71;100.00;101752.03;4892194;29;20463;-84
2023/03/05 07:13:27;;;;;;;1.92;0.90;;;;;;;3.78;100.00;101760.72;4898301;29;20063;-84
2023/03/05 07:15:53;;;;;;;2.45;1.02;;;;;;;3.71;100.00;101760.34;4895403;29;20416;-84
2023/03/05 07:18:18;;;;;;;1.15;0.60;;;;;;;3.64;100.00;101762.69;4894547;29;20470;-83
2023/03/05 07:20:44;;;;;;;0.75;0.70;;;;;;;3.63;100.00;101758.28;4881114;29;20064;-84
2023/03/05 07:23:09;;;;;;;1.52;0.80;;;;;;;3.52;100.00;101763.22;4891900;29;20112;-84
2023/03/05 07:25:36;;;;;;;0.70;0.70;;;;;;;3.70;100.00;101744.84;4878101;29;20020;-84
2023/03/05 07:28:04;;;;;;;1.17;0.95;;;;;;;3.80;100.00;101752.91;4894223;29;20029;-83
2023/03/05 07:30:30;;;;;;;2.55;0.93;;;;;;;3.74;100.00;101754.16;4891939;29;20040;-83
2023/03/05 07:32:56;;;;;;;2.75;0.75;;;;;;;3.64;100.00;101749.66;4892476;29;20029;-84
2023/03/05 07:35:23;;;;;;;1.98;0.70;;;;;;;3.83;100.00;101752.28;4894477;29;20036;-84
2023/03/05 07:37:48;;;;;;;1.00;0.90;;;;;;;3.95;100.00;101750.94;4894016;29;20119;-83
2023/03/05 07:40:13;;;;;;;1.70;1.00;;;;;;;3.79;100.00;101751.28;4894634;29;20111;-83
2023/03/05 07:42:39;;;;;;;1.55;0.90;;;;;;;3.73;100.00;101746.16;4891597;29;20100;-84
2023/03/05 07:45:05;;;;;;;2.88;1.40;;;;;;;3.63;100.00;101749.97;4879517;29;20055;-84
2023/03/05 07:47:31;;;;;;;3.20;1.55;;;;;;;3.56;100.00;101744.03;4897063;29;20035;-83
2023/03/05 07:49:56;;;;;;;6.82;2.22;;;;;;;3.79;100.00;101745.72;4876669;29;20067;-84
2023/03/05 07:52:21;;;;;;;3.25;1.10;;;;;;;3.70;100.00;101742.06;4892309;29;20032;-84
2023/03/05 07:54:47;;;;;;;2.63;1.35;;;;;;;3.64;100.00;101743.31;4879104;29;20285;-84
2023/03/05 07:57:12;;;;;;;4.82;1.55;;;;;;;3.72;100.00;101750.88;4893935;29;20032;-84
2023/03/05 07:59:38;;;;;;;3.60;1.45;;;;;;;3.90;100.00;101751.03;4875403;29;20061;-84
2023/03/05 08:02:04;;;;;;;2.40;1.40;;;;;;;3.79;100.00;101747.69;4882284;29;20028;-84
2023/03/05 08:04:30;;;;;;;5.82;1.80;;;;;;;3.69;100.00;101740.44;4893466;29;20107;-84
2023/03/05 08:06:57;;;;;;;1.83;1.25;;;;;;;3.79;100.00;101734.66;4892780;29;20055;-84
2023/03/05 08:09:22;;;;;;;6.95;1.80;;;;;;;3.75;100.00;101738.34;4893141;29;20039;-84
2023/03/05 08:11:48;;;;;;;2.13;1.38;;;;;;;3.78;100.00;101737.75;4879175;29;20469;-84
2023/03/05 08:14:13;;;;;;;2.28;2.08;;;;;;;3.81;100.00;101737.94;4894088;29;20563;-84
2023/03/05 08:16:39;;;;;;;2.05;1.55;;;;;;;3.56;100.00;101741.25;4871175;29;20025;-84
2023/03/05 08:19:05;;;;;;;4.72;1.60;;;;;;;3.64;100.00;101738.56;4899633;29;20063;-84
2023/03/05 08:21:33;;;;;;;2.42;1.35;;;;;;;3.59;100.00;101732.34;4891403;29;20064;-84
2023/03/05 08:23:59;;;;;;;2.78;1.70;;;;;;;3.73;100.00;101733.16;4890060;29;20364;-83
2023/03/05 08:26:27;;;;;;;6.32;2.33;;;;;;;3.61;100.00;101730.91;4888719;29;20064;-84
2023/03/05 08:28:53;;;;;;;4.10;2.22;;;;;;;3.72;100.00;101727.91;4888769;29;20035;-83
2023/03/05 08:31:20;;;;;;;2.75;1.60;;;;;;;3.79;100.00;101723.56;4889698;29;20029;-84
2023/03/05 08:33:47;;;;;;;2.25;2.03;;;;;;;3.84;100.00;101726.25;4881139;29;20037;-84
2023/03/05 08:36:13;;;;;;;6.45;2.28;;;;;;;3.75;100.00;101722.56;4890775;29;20123;-84
2023/03/05 08:38:38;;;;;;;3.05;1.25;;;;;;;3.84;100.00;101715.16;4875018;29;20135;-84
2023/03/05 08:41:04;;;;;;;2.72;1.50;;;;;;;3.86;100.00;101724.00;4893145;29;20496;-84
2023/03/05 08:43:30;;;;;;;4.07;1.40;;;;;;;3.86;100.00;101729.53;4874043;29;20454;-84
2023/03/05 08:45:56;;;;;;;4.30;1.80;;;;;;;4.06;100.00;101719.09;4874208;29;20130;-84
2023/03/05 08:48:22;;;;;;;6.75;1.58;;;;;;;4.13;100.00;101713.13;4879189;29;20032;-84
2023/03/05 08:50:48;;;;;;;2.88;1.40;;;;;;;4.20;100.00;101717.09;4888370;29;20040;-84
2023/03/05 08:53:14;;;;;;;9.20;1.70;;;;;;;4.15;100.00;101719.97;4873089;29;20568;-84
2023/03/05 08:55:39;;;;;;;5.43;1.98;;;;;;;4.26;100.00;101720.59;4889248;29;20033;-84
2023/03/05 08:58:04;;;;;;;1.90;1.20;;;;;;;4.27;100.00;101709.16;4871812;29;20088;-84
2023/03/05 09:00:30;;;;;;;1.60;1.10;;;;;;;4.38;100.00;101711.69;4888411;29;20044;-84
2023/03/05 09:02:55;;;;;;;4.82;1.42;;;;;;;4.34;100.00;101710.66;4879030;29;20244;-84
2023/03/05 09:05:21;;;;;;;5.45;1.38;;;;;;;4.44;100.00;101704.88;4894633;29;20031;-84
2023/03/05 09:07:46;;;;;;;3.28;1.40;;;;;;;4.45;100.00;101701.00;4877243;29;20040;-84
2023/03/05 09:10:13;;;;;;;4.68;2.13;;;;;;;4.53;100.00;101707.69;4882651;29;20039;-84
2023/03/05 09:12:39;;;;;;;4.65;1.20;;;;;;;4.45;100.00;101706.53;4891341;29;20518;-84
2023/03/05 09:15:07;;;;;;;6.47;1.40;;;;;;;4.49;100.00;101713.09;4876236;29;20096;-84
2023/03/05 09:17:34;;;;;;;6.15;1.30;;;;;;;4.45;100.00;101701.00;4886819;29;20531;-84
2023/03/05 09:20:01;;;;;;;5.70;1.40;;;;;;;4.48;100.00;101700.34;4878550;29;20120;-84
2023/03/05 09:22:27;;;;;;;5.68;1.40;;;;;;;4.54;100.00;101699.06;4888977;29;20370;-84
2023/03/05 09:24:52;;;;;;;1.85;1.10;;;;;;;4.68;100.00;101699.81;4891174;29;20126;-84
2023/03/05 09:27:18;;;;;;;4.65;1.35;;;;;;;4.65;100.00;101689.34;4876708;29;20070;-84
2023/03/05 09:29:43;;;;;;;6.85;1.60;;;;;;;4.77;100.00;101690.72;4874456;29;20115;-84
2023/03/05 09:32:09;;;;;;;8.77;1.73;;;;;;;4.77;100.00;101679.63;4884792;29;20067;-85
2023/03/05 09:34:34;;;;;;;3.15;1.45;;;;;;;4.80;100.00;101685.34;4877463;29;20383;-85
2023/03/05 09:37:00;;;;;;;7.10;1.83;;;;;;;4.89;100.00;101682.59;4888189;29;20477;-85
2023/03/05 09:39:26;;;;;;;2.00;1.35;;;;;;;4.89;100.00;101688.16;4875063;29;20036;-84
2023/03/05 09:41:54;;;;;;;4.55;1.55;;;;;;;5.03;100.00;101676.97;4877372;29;20055;-84
2023/03/05 09:44:54;;;;;;;3.17;1.15;;;;;;;4.92;100.00;101683.94;4878735;29;20047;-83
2023/03/05 09:47:25;;;;;;;6.13;1.40;;;;;;;4.91;100.00;101685.88;4894879;29;20035;-84
2023/03/05 09:50:51;;;;;;;7.22;1.42;;;;;;;4.99;100.00;101671.22;4888735;29;20044;-84
2023/03/05 09:53:45;;;;;;;5.88;1.27;;;;;;;4.98;100.00;101661.28;4842148;29;20037;-84
2023/03/05 09:56:14;;;;;;;7.10;1.52;;;;;;;5.00;100.00;101666.53;4841876;29;20490;-83
2023/03/05 09:58:42;;;;;;;2.67;1.05;;;;;;;4.98;100.00;101669.59;4868729;29;20338;-84
2023/03/05 10:01:28;;;;;;;5.35;1.40;;;;;;;4.98;100.00;101661.28;4879407;29;20398;-84
2023/03/05 10:04:05;;;;;;;3.65;1.40;;;;;;;5.06;100.00;101654.94;4877070;29;20025;-83
2023/03/05 10:07:05;;;;;;;3.83;1.20;;;;;;;5.18;100.00;101656.28;4898625;29;20056;-83
2023/03/05 10:09:56;;;;;;;4.25;1.48;;;;;;;5.31;100.00;101660.88;4877962;29;20406;-83
2023/03/05 10:12:44;;;;;;;5.32;1.23;;;;;;;5.32;100.00;101648.66;4894608;29;20044;-82
2023/03/05 10:15:25;;;;;;;6.20;1.75;;;;;;;5.21;100.00;101655.66;4894927;29;20028;-83
2023/03/05 10:18:18;;;;;;;2.90;1.60;;;;;;;5.10;100.00;101652.31;4879474;29;20374;-82
2023/03/05 10:21:15;;;;;;;5.63;1.45;;;;;;;5.09;100.00;101647.94;4896551;29;20025;-83
2023/03/05 10:24:08;;;;;;;7.95;1.83;;;;;;;4.94;100.00;101646.41;4893897;29;20040;-84
2023/03/05 10:26:58;;;;;;;4.95;1.40;;;;;;;4.91;100.00;101649.81;4879757;29;20497;-84
2023/03/05 10:29:46;;;;;;;2.30;1.20;;;;;;;5.01;100.00;101640.41;4872559;29;20036;-84
2023/03/05 10:32:49;;;;;;;2.10;1.10;;;;;;;4.96;100.00;101633.03;4888558;29;20039;-84
2023/03/05 10:35:52;;;;;;;4.63;1.23;;;;;;;5.01;100.00;101624.56;4891981;29;20577;-84
2023/03/05 10:38:24;;;;;;;2.35;1.08;;;;;;;5.01;100.00;101624.56;4883926;29;20028;-83
2023/03/05 10:40:59;;;;;;;5.82;1.95;;;;;;;5.09;100.00;101626.53;4897303;29;20071;-83
2023/03/05 10:43:51;;;;;;;1.65;1.50;;;;;;;5.15;100.00;101624.44;4880099;29;20044;-83
2023/03/05 10:46:20;;;;;;;6.00;1.23;;;;;;;5.18;100.00;101618.22;4891849;29;20040;-83
2023/03/05 10:48:52;;;;;;;6.78;2.15;;;;;;;5.13;100.00;101614.81;4876145;29;20093;-83
2023/03/05 10:51:26;;;;;;;8.25;1.27;;;;;;;5.20;100.00;101615.13;4891303;29;20577;-83
2023/03/05 10:54:03;;;;;;;6.45;2.15;;;;;;;5.26;100.00;101611.88;4883511;29;20441;-84
2023/03/05 10:56:30;;;;;;;4.32;1.25;;;;;;;5.23;100.00;101617.28;4889276;29;20114;-84
2023/03/05 10:58:56;;;;;;;6.68;1.70;;;;;;;5.42;100.00;101606.69;4888918;29;20072;-84
2023/03/05 11:01:27;;;;;;;3.13;1.10;;;;;;;5.53;100.00;101609.97;4889638;29;20044;-84
2023/03/05 11:04:12;;;;;;;3.45;1.35;;;;;;;5.38;100.00;101600.16;4891728;29;20024;-84
2023/03/05 11:06:44;;;;;;;4.13;1.13;;;;;;;5.39;100.00;101609.28;4886495;29;20044;-84
2023/03/05 11:09:16;;;;;;;6.50;1.42;;;;;;;5.42;100.00;101595.59;4893281;29;20044;-84
2023/03/05 11:11:42;;;;;;;7.57;2.42;;;;;;;5.41;100.00;101588.38;4871387;29;20033;-85
2023/03/05 11:14:28;;;;;;;4.72;1.10;;;;;;;5.52;100.00;101593.63;4870818;29;20044;-85
2023/03/05 11:16:54;;;;;;;4.75;1.77;;;;;;;5.44;100.00;101582.19;4887541;29;20054;-84
2023/03/05 11:19:31;;;;;;;3.53;1.40;;;;;;;5.44;100.00;101587.75;4875649;29;20111;-84
2023/03/05 11:22:09;;;;;;;9.05;1.90;;;;;;;5.30;100.00;101584.31;4890307;29;20044;-84
2023/03/05 11:24:36;;;;;;;3.42;1.27;;;;;;;5.19;100.00;101583.00;4888517;29;20112;-85
2023/03/05 11:27:19;;;;;;;8.32;1.40;;;;;;;5.19;100.00;101569.13;4889938;29;20160;-85
2023/03/05 11:29:48;;;;;;;6.20;1.33;;;;;;;5.29;100.00;101574.31;4893636;29;20037;-85